createdAt,value
2023-05-17T00:00:07.150Z,9.80
2023-05-17T00:05:09.644Z,9.70
2023-05-17T00:10:11.869Z,9.60
2023-05-17T00:15:14.852Z,9.40
2023-05-17T00:20:17.013Z,9.20
2023-05-17T00:25:19.088Z,9.10
2023-05-17T00:30:21.250Z,9.00
2023-05-17T00:35:23.613Z,8.90
2023-05-17T00:40:27.493Z,8.80
2023-05-17T00:45:30.734Z,8.70
2023-05-17T00:50:33.218Z,8.70
2023-05-17T00:55:35.670Z,8.60
2023-05-17T01:00:38.119Z,8.50
2023-05-17T01:05:40.762Z,8.50
2023-05-17T01:10:55.006Z,8.40
2023-05-17T01:16:30.747Z,8.40
2023-05-17T01:21:52.909Z,8.40
2023-05-17T01:26:55.166Z,8.30
2023-05-17T01:32:00.832Z,8.40
2023-05-17T01:37:02.905Z,8.30
2023-05-17T01:42:21.518Z,8.30
2023-05-17T01:47:51.330Z,8.30
2023-05-17T01:52:56.269Z,8.10
2023-05-17T01:57:59.577Z,8.00
2023-05-17T02:03:01.842Z,8.00
2023-05-17T02:08:04.194Z,7.90
2023-05-17T02:13:06.480Z,7.90
2023-05-17T02:18:09.205Z,7.90
2023-05-17T02:23:11.941Z,7.80
2023-05-17T02:28:14.009Z,7.70
2023-05-17T02:33:16.198Z,7.70
2023-05-17T02:38:18.342Z,7.60
2023-05-17T02:43:20.372Z,7.50
2023-05-17T02:48:22.502Z,7.60
2023-05-17T02:53:24.737Z,7.50
2023-05-17T02:58:27.071Z,7.50
2023-05-17T03:03:29.495Z,7.40
2023-05-17T03:08:31.878Z,7.40
2023-05-17T03:13:35.837Z,7.30
2023-05-17T03:18:38.074Z,7.20
2023-05-17T03:23:40.390Z,7.20
2023-05-17T03:28:42.966Z,7.40
2023-05-17T03:33:46.263Z,7.40
2023-05-17T03:38:49.165Z,7.30
2023-05-17T03:43:52.246Z,7.40
2023-05-17T03:48:56.462Z,7.40
2023-05-17T03:54:00.597Z,7.50
2023-05-17T03:59:04.414Z,7.60
2023-05-17T04:04:07.128Z,7.70
2023-05-17T04:09:11.292Z,7.90
2023-05-17T04:14:15.524Z,8.00
2023-05-17T04:19:18.575Z,8.00
2023-05-17T04:24:20.858Z,8.20
2023-05-17T04:29:23.841Z,8.30
2023-05-17T04:34:26.460Z,8.40
2023-05-17T04:39:31.595Z,8.40
2023-05-17T04:44:33.996Z,8.50
2023-05-17T04:49:37.532Z,8.60
2023-05-17T04:54:39.840Z,8.90
2023-05-17T04:59:41.966Z,9.00
2023-05-17T05:04:44.434Z,8.90
2023-05-17T05:09:48.698Z,9.00
2023-05-17T05:14:52.369Z,9.10
2023-05-17T05:19:54.917Z,9.10
2023-05-17T05:24:57.379Z,9.10
2023-05-17T05:29:59.589Z,9.30
2023-05-17T05:35:02.132Z,9.30
2023-05-17T05:40:05.280Z,9.40
2023-05-17T05:45:08.560Z,9.60
2023-05-17T05:50:11.702Z,9.60
2023-05-17T05:55:17.825Z,9.70
2023-05-17T06:00:20.157Z,9.70
2023-05-17T06:11:06.965Z,10.10
2023-05-17T06:16:09.319Z,10.00
2023-05-17T06:21:18.322Z,10.10
2023-05-17T06:26:20.467Z,10.20
2023-05-17T06:31:22.660Z,10.40
2023-05-17T06:36:25.476Z,10.10
2023-05-17T06:41:27.782Z,10.20
2023-05-17T06:46:29.948Z,10.20
2023-05-17T06:51:32.266Z,10.10
2023-05-17T06:56:34.641Z,10.00
2023-05-17T07:01:36.854Z,10.00
2023-05-17T07:06:38.954Z,10.30
2023-05-17T07:11:41.323Z,10.30
2023-05-17T07:16:43.617Z,10.70
2023-05-17T07:21:46.316Z,10.70
2023-05-17T07:26:50.244Z,11.00
2023-05-17T07:31:54.234Z,11.10
2023-05-17T07:36:56.441Z,11.30
2023-05-17T07:41:58.691Z,11.50
2023-05-17T07:47:01.237Z,11.50
2023-05-17T07:52:04.071Z,11.70
2023-05-17T07:57:06.164Z,11.90
2023-05-17T08:02:08.393Z,11.30
2023-05-17T08:07:10.583Z,11.40
2023-05-17T08:12:12.682Z,11.50
2023-05-17T08:17:14.937Z,11.50
2023-05-17T08:22:17.196Z,11.80
2023-05-17T08:27:19.372Z,11.80
2023-05-17T08:32:21.553Z,12.10
2023-05-17T08:37:23.860Z,12.70
2023-05-17T08:42:26.222Z,13.10
2023-05-17T08:47:32.330Z,13.00
2023-05-17T08:52:36.425Z,12.90
2023-05-17T08:57:39.478Z,12.70
2023-05-17T09:02:43.207Z,12.90
2023-05-17T09:07:45.574Z,12.30
2023-05-17T09:12:48.244Z,12.60
2023-05-17T09:17:54.421Z,12.80
2023-05-17T09:22:57.468Z,13.10
2023-05-17T09:28:07.878Z,13.20
2023-05-17T09:33:12.380Z,12.90
2023-05-17T09:38:16.316Z,12.50
2023-05-17T09:43:25.550Z,12.80
2023-05-17T09:48:28.376Z,12.80
2023-05-17T09:53:32.558Z,12.90
2023-05-17T09:58:37.561Z,13.10
2023-05-17T10:03:39.935Z,12.80
2023-05-17T10:08:47.737Z,12.80
2023-05-17T10:14:02.278Z,13.30
2023-05-17T10:19:05.810Z,14.40
2023-05-17T10:24:08.505Z,15.30
2023-05-17T10:29:11.139Z,15.30
2023-05-17T10:34:17.156Z,14.60
2023-05-17T10:39:19.535Z,14.00
2023-05-17T10:44:22.849Z,13.80
2023-05-17T10:49:37.308Z,13.40
2023-05-17T10:54:43.127Z,13.30
2023-05-17T11:00:00.307Z,13.20
2023-05-17T11:05:02.711Z,13.80
2023-05-17T11:10:16.290Z,15.50
2023-05-17T11:15:18.861Z,18.40
2023-05-17T11:20:27.702Z,17.30
2023-05-17T11:25:36.352Z,17.00
2023-05-17T11:30:43.762Z,17.20
2023-05-17T11:35:46.637Z,16.00
2023-05-17T11:40:51.028Z,16.50
2023-05-17T11:45:58.317Z,16.70
2023-05-17T11:51:02.382Z,16.30
2023-05-17T11:56:05.194Z,15.10
2023-05-17T12:01:08.885Z,16.00
2023-05-17T12:06:17.410Z,16.20
2023-05-17T12:11:19.707Z,15.50
2023-05-17T12:16:22.897Z,15.40
2023-05-17T12:21:25.101Z,15.20
2023-05-17T12:26:27.253Z,14.50
2023-05-17T12:31:42.028Z,14.00
2023-05-17T12:36:45.399Z,14.10
2023-05-17T12:41:48.301Z,14.20
2023-05-17T12:46:54.176Z,14.50
2023-05-17T12:51:56.469Z,14.40
2023-05-17T12:56:58.814Z,14.20
2023-05-17T13:02:01.143Z,14.50
2023-05-17T13:07:05.294Z,15.00
2023-05-17T13:12:08.522Z,15.50
2023-05-17T13:17:13.019Z,15.30
2023-05-17T13:22:18.636Z,14.10
2023-05-17T13:27:21.057Z,14.20
2023-05-17T13:32:23.349Z,14.90
2023-05-17T13:37:26.017Z,16.30
2023-05-17T13:42:28.507Z,17.10
2023-05-17T13:47:32.312Z,17.40
2023-05-17T13:52:34.828Z,17.40
2023-05-17T13:57:36.904Z,17.30
2023-05-17T14:02:40.158Z,16.70
2023-05-17T14:07:43.708Z,18.10
2023-05-17T14:12:47.231Z,17.60
2023-05-17T14:17:50.276Z,16.10
2023-05-17T14:22:52.524Z,15.70
2023-05-17T14:27:54.887Z,16.10
2023-05-17T14:32:57.201Z,15.40
2023-05-17T14:37:59.395Z,15.30
2023-05-17T14:43:01.863Z,15.20
2023-05-17T14:48:04.231Z,14.50
2023-05-17T14:53:06.765Z,13.70
2023-05-17T14:58:09.200Z,13.40
2023-05-17T15:03:11.896Z,13.80
2023-05-17T15:08:14.450Z,14.80
2023-05-17T15:13:17.637Z,15.50
2023-05-17T15:18:20.602Z,14.60
2023-05-17T15:23:22.655Z,14.10
2023-05-17T15:28:24.944Z,14.30
2023-05-17T15:33:27.112Z,14.00
2023-05-17T15:38:29.292Z,15.20
2023-05-17T15:43:33.240Z,17.60
2023-05-17T15:48:36.232Z,16.60
2023-05-17T15:53:38.584Z,15.40
2023-05-17T15:58:41.068Z,16.80
2023-05-17T16:03:43.157Z,16.70
2023-05-17T16:08:45.358Z,15.20
2023-05-17T16:13:47.567Z,14.60
2023-05-17T16:18:49.675Z,13.80
2023-05-17T16:23:52.097Z,14.40
2023-05-17T16:28:54.219Z,15.50
2023-05-17T16:33:56.619Z,14.60
2023-05-17T16:38:58.810Z,14.20
2023-05-17T16:44:01.446Z,14.70
2023-05-17T16:49:03.769Z,14.10
2023-05-17T16:54:06.180Z,13.40
2023-05-17T16:59:08.753Z,13.00
2023-05-17T17:04:11.069Z,12.90
2023-05-17T17:09:13.345Z,12.70
2023-05-17T17:14:16.619Z,12.60
2023-05-17T17:19:19.136Z,12.50
2023-05-17T17:24:21.739Z,12.20
2023-05-17T17:29:23.929Z,12.10
2023-05-17T17:34:26.293Z,12.00
2023-05-17T17:39:28.471Z,11.60
2023-05-17T17:44:30.859Z,11.60
2023-05-17T17:49:33.112Z,11.50
2023-05-17T17:54:35.422Z,11.50
2023-05-17T17:59:37.683Z,11.70
2023-05-17T18:04:40.852Z,11.50
2023-05-17T18:09:43.642Z,11.30
2023-05-17T18:14:46.002Z,11.20
2023-05-17T18:19:48.750Z,10.90
2023-05-17T18:24:52.893Z,10.80
2023-05-17T18:29:54.947Z,10.70
2023-05-17T18:34:57.016Z,10.40
2023-05-17T18:40:01.965Z,10.30
2023-05-17T18:45:04.685Z,10.40
2023-05-17T18:50:07.396Z,10.40
2023-05-17T18:55:09.786Z,10.40
2023-05-17T19:00:12.754Z,10.30
2023-05-17T19:05:15.161Z,10.20
2023-05-17T19:10:18.592Z,10.10
2023-05-17T19:15:21.247Z,10.10
2023-05-17T19:20:23.471Z,10.00
2023-05-17T19:25:25.793Z,9.90
2023-05-17T19:30:30.424Z,9.90
2023-05-17T19:35:37.823Z,9.80
2023-05-17T19:40:41.052Z,9.70
2023-05-17T19:45:43.782Z,9.50
2023-05-17T19:50:46.026Z,9.60
2023-05-17T19:55:48.285Z,9.50
2023-05-17T20:00:50.541Z,9.50
2023-05-17T20:05:53.013Z,9.60
2023-05-17T20:10:55.284Z,9.60
2023-05-17T20:15:57.469Z,9.60
2023-05-17T20:20:59.783Z,9.50
2023-05-17T20:26:02.256Z,9.60
2023-05-17T20:31:04.474Z,9.60
2023-05-17T20:36:06.810Z,9.60
2023-05-17T20:41:09.201Z,9.60
2023-05-17T20:46:13.520Z,9.70
2023-05-17T20:51:17.780Z,9.70
2023-05-17T20:56:20.010Z,9.70
2023-05-17T21:01:22.699Z,9.60
2023-05-17T21:06:26.579Z,9.40
2023-05-17T21:11:29.836Z,9.30
2023-05-17T21:16:32.128Z,9.30
2023-05-17T21:21:34.331Z,9.30
2023-05-17T21:26:38.470Z,9.40
2023-05-17T21:31:42.880Z,9.40
2023-05-17T21:36:44.941Z,9.50
2023-05-17T21:41:47.006Z,9.40
2023-05-17T21:46:49.491Z,9.30
2023-05-17T21:51:51.682Z,9.30
2023-05-17T21:56:53.832Z,9.20
2023-05-17T22:01:55.970Z,9.20
2023-05-17T22:06:58.254Z,9.20
2023-05-17T22:12:00.613Z,9.20
2023-05-17T22:17:08.148Z,9.10
2023-05-17T22:22:10.258Z,9.20
2023-05-17T22:27:12.408Z,9.10
2023-05-17T22:32:14.815Z,9.10
2023-05-17T22:37:17.754Z,9.20
2023-05-17T22:42:19.962Z,9.20
2023-05-17T22:47:24.528Z,9.30
2023-05-17T22:52:27.080Z,9.20
2023-05-17T22:57:29.127Z,9.10
2023-05-17T23:02:31.506Z,9.10
2023-05-17T23:07:37.409Z,9.10
2023-05-17T23:12:39.621Z,9.10
2023-05-17T23:17:41.840Z,9.10
2023-05-17T23:22:44.381Z,9.10
2023-05-17T23:27:48.861Z,9.00
2023-05-17T23:32:52.305Z,9.20
2023-05-17T23:37:54.681Z,9.10
2023-05-17T23:42:56.992Z,9.20
2023-05-17T23:48:00.748Z,9.20
2023-05-17T23:53:03.633Z,9.20
2023-05-17T23:58:05.745Z,9.30
